createdAt,value
2022-11-24T00:01:12.534Z,71.30
2022-11-24T00:03:39.656Z,67.15
2022-11-24T00:06:12.428Z,61.23
2022-11-24T00:08:41.136Z,81.93
2022-11-24T00:11:10.584Z,79.78
2022-11-24T00:13:40.822Z,75.85
2022-11-24T00:16:13.740Z,63.90
2022-11-24T00:18:41.936Z,65.75
2022-11-24T00:23:35.886Z,66.60
2022-11-24T00:26:13.530Z,72.47
2022-11-24T00:28:41.903Z,65.53
2022-11-24T00:31:27.401Z,74.60
2022-11-24T00:33:59.649Z,61.25
2022-11-24T00:36:29.367Z,78.15
2022-11-24T00:39:01.966Z,74.18
2022-11-24T00:41:29.552Z,75.03
2022-11-24T00:43:56.984Z,64.85
2022-11-24T00:46:26.315Z,97.25
2022-11-24T00:48:53.970Z,81.90
2022-11-24T00:51:23.215Z,61.83
2022-11-24T00:53:50.326Z,79.40
2022-11-24T00:56:17.205Z,71.87
2022-11-24T00:58:44.147Z,75.68
2022-11-24T01:01:14.548Z,73.00
2022-11-24T01:03:42.558Z,69.70
2022-11-24T01:06:18.358Z,53.92
2022-11-24T01:08:45.483Z,63.72
2022-11-24T01:11:27.358Z,53.40
2022-11-24T01:13:59.432Z,62.22
2022-11-24T01:16:29.997Z,70.93
2022-11-24T01:18:56.949Z,77.93
2022-11-24T01:21:25.301Z,64.18
2022-11-24T01:23:52.323Z,58.17
2022-11-24T01:26:21.915Z,52.78
2022-11-24T01:28:56.947Z,56.95
2022-11-24T01:31:25.191Z,79.93
2022-11-24T01:33:52.681Z,71.70
2022-11-24T01:36:20.252Z,72.10
2022-11-24T01:38:47.221Z,82.35
2022-11-24T01:41:25.718Z,75.45
2022-11-24T01:43:54.108Z,72.60
2022-11-24T01:46:32.280Z,80.63
2022-11-24T01:49:06.507Z,63.67
2022-11-24T01:51:37.152Z,80.07
2022-11-24T01:54:32.484Z,84.43
2022-11-24T01:57:07.914Z,70.80
2022-11-24T01:59:35.174Z,85.63
2022-11-24T02:02:02.386Z,67.90
2022-11-24T02:04:33.228Z,55.63
2022-11-24T02:07:02.528Z,80.97
2022-11-24T02:09:45.102Z,76.47
2022-11-24T02:12:12.060Z,53.72
2022-11-24T02:14:41.967Z,72.18
2022-11-24T02:17:08.842Z,66.97
2022-11-24T02:19:45.417Z,110.35
2022-11-24T02:22:21.443Z,57.80
2022-11-24T02:25:06.821Z,61.92
2022-11-24T02:27:33.751Z,78.50
2022-11-24T02:30:00.744Z,57.70
2022-11-24T02:32:28.322Z,94.22
2022-11-24T02:35:03.447Z,59.00
2022-11-24T02:37:30.415Z,58.90
2022-11-24T02:39:57.298Z,63.90
2022-11-24T02:42:25.718Z,55.05
2022-11-24T02:44:56.746Z,74.78
2022-11-24T02:47:23.621Z,84.75
2022-11-24T02:49:50.441Z,65.72
2022-11-24T02:52:17.378Z,62.80
2022-11-24T02:54:44.728Z,67.82
2022-11-24T02:57:11.832Z,68.10
2022-11-24T02:59:38.832Z,64.30
2022-11-24T03:02:05.713Z,60.60
2022-11-24T03:04:33.009Z,67.45
2022-11-24T03:07:00.077Z,93.90
2022-11-24T03:09:26.995Z,65.55
2022-11-24T03:11:53.777Z,61.72
2022-11-24T03:14:20.575Z,60.42
2022-11-24T03:16:47.439Z,51.70
2022-11-24T03:19:14.284Z,57.20
2022-11-24T03:21:41.125Z,57.95
2022-11-24T03:24:08.020Z,51.17
2022-11-24T03:26:35.466Z,59.00
2022-11-24T03:29:02.644Z,56.75
2022-11-24T03:31:29.461Z,57.30
2022-11-24T03:33:56.484Z,56.13
2022-11-24T03:36:23.473Z,45.80
2022-11-24T03:38:50.359Z,59.28
2022-11-24T03:41:17.320Z,57.95
2022-11-24T03:43:44.472Z,68.20
2022-11-24T03:46:12.448Z,49.23
2022-11-24T03:48:39.470Z,52.38
2022-11-24T03:51:06.714Z,71.10
2022-11-24T03:53:34.318Z,64.03
2022-11-24T03:56:02.191Z,79.82
2022-11-24T03:58:29.625Z,63.63
2022-11-24T04:00:57.161Z,62.80
2022-11-24T04:03:25.027Z,55.85
2022-11-24T04:05:51.975Z,70.95
2022-11-24T04:08:19.483Z,56.22
2022-11-24T04:10:53.436Z,53.22
2022-11-24T04:13:22.796Z,52.45
2022-11-24T04:15:49.680Z,58.22
2022-11-24T04:18:16.591Z,52.78
2022-11-24T04:20:43.840Z,59.90
2022-11-24T04:23:11.350Z,59.40
2022-11-24T04:25:38.998Z,58.22
2022-11-24T04:30:33.805Z,64.47
2022-11-24T04:33:00.603Z,64.82
2022-11-24T04:35:28.214Z,62.00
2022-11-24T04:37:55.094Z,70.22
2022-11-24T04:40:21.946Z,65.57
2022-11-24T04:42:56.327Z,62.75
2022-11-24T04:45:24.018Z,61.35
2022-11-24T04:47:51.107Z,76.20
2022-11-24T04:50:18.128Z,67.27
2022-11-24T04:52:44.984Z,65.95
2022-11-24T04:55:11.967Z,57.28
2022-11-24T04:57:39.217Z,69.57
2022-11-24T05:00:07.521Z,75.95
2022-11-24T05:02:34.435Z,64.30
2022-11-24T05:05:01.317Z,66.93
2022-11-24T05:07:28.240Z,67.05
2022-11-24T05:10:13.693Z,65.57
2022-11-24T05:12:40.458Z,62.75
2022-11-24T05:15:08.095Z,63.63
2022-11-24T05:17:37.421Z,57.55
2022-11-24T05:20:06.192Z,72.20
2022-11-24T05:22:32.992Z,59.75
2022-11-24T05:24:59.775Z,63.45
2022-11-24T05:27:26.517Z,71.85
2022-11-24T05:29:53.367Z,57.10
2022-11-24T05:32:20.200Z,67.32
2022-11-24T05:34:47.185Z,69.32
2022-11-24T05:37:14.101Z,66.68
2022-11-24T05:39:40.904Z,60.30
2022-11-24T05:42:26.880Z,48.67
2022-11-24T05:44:54.103Z,57.38
2022-11-24T05:47:21.400Z,51.27
2022-11-24T05:49:48.185Z,82.75
2022-11-24T05:52:15.640Z,55.08
2022-11-24T05:54:42.436Z,56.60
2022-11-24T05:57:09.415Z,55.85
2022-11-24T05:59:36.209Z,49.50
2022-11-24T06:02:03.415Z,76.38
2022-11-24T06:04:30.414Z,54.67
2022-11-24T06:06:57.195Z,53.33
2022-11-24T06:09:23.956Z,58.53
2022-11-24T06:11:50.703Z,60.42
2022-11-24T06:14:17.430Z,53.13
2022-11-24T06:16:44.267Z,79.20
2022-11-24T06:19:11.390Z,58.03
2022-11-24T06:21:38.171Z,55.75
2022-11-24T06:24:05.798Z,67.10
2022-11-24T06:26:32.787Z,60.33
2022-11-24T06:28:59.650Z,46.97
2022-11-24T06:31:27.814Z,47.85
2022-11-24T06:33:59.273Z,57.20
2022-11-24T06:36:27.104Z,45.83
2022-11-24T06:38:54.142Z,51.78
2022-11-24T06:41:21.066Z,49.95
2022-11-24T06:43:53.465Z,60.27
2022-11-24T06:46:20.823Z,56.38
2022-11-24T06:48:47.638Z,52.70
2022-11-24T06:51:14.479Z,57.65
2022-11-24T06:53:41.665Z,67.63
2022-11-24T06:56:16.196Z,74.87
2022-11-24T06:58:46.011Z,72.78
2022-11-24T07:01:24.166Z,54.88
2022-11-24T07:03:52.289Z,61.88
2022-11-24T07:08:47.089Z,41.88
2022-11-24T07:11:20.837Z,52.22
2022-11-24T07:13:48.443Z,51.75
2022-11-24T07:16:21.078Z,48.38
2022-11-24T07:18:49.277Z,51.10
2022-11-24T07:21:16.350Z,49.65
2022-11-24T07:23:43.446Z,45.75
2022-11-24T07:26:11.447Z,45.53
2022-11-24T07:28:38.693Z,48.47
2022-11-24T07:31:10.038Z,46.60
2022-11-24T07:33:37.193Z,52.22
2022-11-24T07:36:05.703Z,48.83
2022-11-24T07:38:32.789Z,55.13
2022-11-24T07:41:05.128Z,55.38
2022-11-24T07:43:33.391Z,52.67
2022-11-24T07:46:00.645Z,55.25
2022-11-24T07:48:27.889Z,50.45
2022-11-24T07:50:56.547Z,53.97
2022-11-24T07:53:23.548Z,54.40
2022-11-24T07:55:55.543Z,51.17
2022-11-24T07:58:22.792Z,55.25
2022-11-24T08:00:49.617Z,51.33
2022-11-24T08:03:16.466Z,52.67
2022-11-24T08:06:07.684Z,50.30
2022-11-24T08:08:33.286Z,55.73
2022-11-24T08:11:07.918Z,51.03
2022-11-24T08:13:36.136Z,47.50
2022-11-24T08:16:11.135Z,51.47
2022-11-24T08:18:38.863Z,50.70
2022-11-24T08:21:06.188Z,49.33
2022-11-24T08:23:33.435Z,46.97
2022-11-24T08:26:05.383Z,46.22
2022-11-24T08:28:33.015Z,44.33
2022-11-24T08:31:08.478Z,44.42
2022-11-24T08:33:35.465Z,42.25
2022-11-24T08:36:07.763Z,44.78
2022-11-24T08:38:34.882Z,43.55
2022-11-24T08:41:07.387Z,44.17
2022-11-24T08:43:34.286Z,40.00
2022-11-24T08:46:02.409Z,40.95
2022-11-24T08:50:57.630Z,42.13
2022-11-24T08:55:51.573Z,40.60
2022-11-24T08:58:18.398Z,38.67
2022-11-24T09:00:45.178Z,37.40
2022-11-24T09:03:12.302Z,44.03
2022-11-24T09:05:54.710Z,37.30
2022-11-24T09:08:21.464Z,38.17
2022-11-24T09:10:48.401Z,37.70
2022-11-24T09:13:15.134Z,37.70
2022-11-24T09:15:41.847Z,41.67
2022-11-24T09:18:08.618Z,35.35
2022-11-24T09:20:35.413Z,39.03
2022-11-24T09:23:02.402Z,34.75
2022-11-24T09:25:29.156Z,40.72
2022-11-24T09:27:56.394Z,37.45
2022-11-24T09:30:23.289Z,35.80
2022-11-24T09:32:50.156Z,36.03
2022-11-24T09:35:17.196Z,38.15
2022-11-24T09:37:45.609Z,39.63
2022-11-24T09:40:14.497Z,37.45
2022-11-24T09:43:22.620Z,36.35
2022-11-24T09:46:18.053Z,37.53
2022-11-24T09:48:49.245Z,37.70
2022-11-24T09:51:16.953Z,33.97
2022-11-24T09:53:53.409Z,37.95
2022-11-24T09:56:28.841Z,35.30
2022-11-24T09:59:10.718Z,33.78
2022-11-24T10:01:41.760Z,34.45
2022-11-24T10:04:28.742Z,35.45
2022-11-24T10:07:07.370Z,34.00
2022-11-24T10:10:06.444Z,32.58
2022-11-24T10:13:08.174Z,33.20
2022-11-24T10:15:53.728Z,36.00
2022-11-24T10:18:20.516Z,35.30
2022-11-24T10:20:52.447Z,31.92
2022-11-24T10:23:44.432Z,35.40
2022-11-24T10:26:39.792Z,32.80
2022-11-24T10:29:12.547Z,31.63
2022-11-24T10:31:45.673Z,33.13
2022-11-24T10:34:17.856Z,34.08
2022-11-24T10:37:12.722Z,31.25
2022-11-24T10:39:57.116Z,33.47
2022-11-24T10:42:33.369Z,31.00
2022-11-24T10:45:22.279Z,31.40
2022-11-24T10:47:50.428Z,33.13
2022-11-24T10:52:58.243Z,32.42
2022-11-24T10:55:25.158Z,32.10
2022-11-24T10:57:51.965Z,35.03
2022-11-24T11:00:18.745Z,33.97
2022-11-24T11:02:46.562Z,31.05
2022-11-24T11:05:31.712Z,35.10
2022-11-24T11:08:14.140Z,34.10
2022-11-24T11:10:44.810Z,32.25
2022-11-24T11:13:29.776Z,33.10
2022-11-24T11:15:58.719Z,33.53
2022-11-24T11:18:33.424Z,32.45
2022-11-24T11:21:02.408Z,36.05
2022-11-24T11:23:35.266Z,33.70
2022-11-24T11:26:32.332Z,30.88
2022-11-24T11:35:04.746Z,34.58
2022-11-24T11:37:33.394Z,34.03
2022-11-24T11:40:00.988Z,35.00
2022-11-24T11:43:03.790Z,32.60
2022-11-24T11:45:25.308Z,34.55
2022-11-24T11:47:57.164Z,34.95
2022-11-24T11:51:06.710Z,37.38
2022-11-24T11:54:02.083Z,36.90
2022-11-24T11:56:32.929Z,35.22
2022-11-24T11:59:17.448Z,33.15
2022-11-24T12:02:02.947Z,35.97
2022-11-24T12:04:49.031Z,34.80
2022-11-24T12:07:33.134Z,36.45
2022-11-24T12:10:23.541Z,33.92
2022-11-24T12:13:08.949Z,31.35
2022-11-24T12:15:39.074Z,32.20
2022-11-24T12:18:40.288Z,35.22
2022-11-24T12:21:25.929Z,35.25
2022-11-24T12:24:13.612Z,36.63
2022-11-24T12:27:22.481Z,34.87
2022-11-24T12:30:14.542Z,33.97
2022-11-24T12:33:11.979Z,38.92
2022-11-24T12:35:50.516Z,35.70
2022-11-24T12:38:38.396Z,36.33
2022-11-24T12:43:55.321Z,37.50
2022-11-24T12:46:56.535Z,34.17
2022-11-24T12:49:38.640Z,34.90
2022-11-24T12:52:28.065Z,40.03
2022-11-24T12:54:56.061Z,37.47
2022-11-24T12:57:33.866Z,39.78
2022-11-24T13:00:23.469Z,39.50
2022-11-24T13:03:12.358Z,38.55
2022-11-24T13:05:59.524Z,35.42
2022-11-24T13:08:28.255Z,37.92
2022-11-24T13:10:57.197Z,38.50
2022-11-24T13:13:48.036Z,33.85
2022-11-24T13:19:12.367Z,34.33
2022-11-24T13:21:42.918Z,29.90
2022-11-24T13:24:19.803Z,33.90
2022-11-24T13:27:16.440Z,33.60
2022-11-24T13:29:45.274Z,32.58
2022-11-24T13:32:12.010Z,32.80
2022-11-24T13:34:38.851Z,33.15
2022-11-24T13:37:31.408Z,35.60
2022-11-24T13:40:14.491Z,31.30
2022-11-24T13:43:10.725Z,31.63
2022-11-24T13:45:41.199Z,35.00
2022-11-24T13:48:20.522Z,32.03
2022-11-24T13:50:50.996Z,32.80
2022-11-24T13:53:45.164Z,34.72
2022-11-24T13:56:11.944Z,35.30
2022-11-24T13:58:56.095Z,33.97
2022-11-24T14:01:31.951Z,33.35
2022-11-24T14:04:29.809Z,34.35
2022-11-24T14:07:07.448Z,32.95
2022-11-24T14:09:44.816Z,32.78
2022-11-24T14:12:17.163Z,33.92
2022-11-24T14:14:46.305Z,32.13
2022-11-24T14:17:19.253Z,32.58
2022-11-24T14:19:48.807Z,31.52
2022-11-24T14:22:37.315Z,31.95
2022-11-24T14:25:04.731Z,29.60
2022-11-24T14:27:34.189Z,33.30
2022-11-24T14:30:21.338Z,32.65
2022-11-24T14:32:59.302Z,37.13
2022-11-24T14:35:34.488Z,35.25
2022-11-24T14:38:06.144Z,38.97
2022-11-24T14:40:51.216Z,40.85
2022-11-24T14:43:32.477Z,40.67
2022-11-24T14:46:01.145Z,46.88
2022-11-24T14:48:37.378Z,45.58
2022-11-24T14:51:08.615Z,46.55
2022-11-24T14:53:35.971Z,43.75
2022-11-24T14:56:21.163Z,44.50
2022-11-24T14:58:48.071Z,46.45
2022-11-24T15:01:26.998Z,46.05
2022-11-24T15:07:14.670Z,48.72
2022-11-24T15:09:47.551Z,49.70
2022-11-24T15:12:31.022Z,50.60
2022-11-24T15:15:02.353Z,47.95
2022-11-24T15:17:30.337Z,51.50
2022-11-24T15:20:02.480Z,51.20
2022-11-24T15:22:29.225Z,54.40
2022-11-24T15:24:56.029Z,52.15
2022-11-24T15:27:22.918Z,50.72
2022-11-24T15:29:50.145Z,49.22
2022-11-24T15:32:19.161Z,48.80
2022-11-24T15:34:45.920Z,49.17
2022-11-24T15:37:12.801Z,49.20
2022-11-24T15:39:39.573Z,49.72
2022-11-24T15:42:06.466Z,50.60
2022-11-24T15:44:34.857Z,54.72
2022-11-24T15:47:01.978Z,55.47
2022-11-24T15:49:28.832Z,49.65
2022-11-24T15:51:55.733Z,60.28
2022-11-24T15:54:24.588Z,63.33
2022-11-24T15:56:51.656Z,58.50
2022-11-24T15:59:20.747Z,56.72
2022-11-24T16:01:49.622Z,59.70
2022-11-24T16:04:16.641Z,52.80
2022-11-24T16:06:43.543Z,58.53
2022-11-24T16:09:15.959Z,54.97
2022-11-24T16:11:42.794Z,58.55
2022-11-24T16:14:09.733Z,57.13
2022-11-24T16:16:36.745Z,53.65
2022-11-24T16:19:03.926Z,57.40
2022-11-24T16:21:30.864Z,55.17
2022-11-24T16:23:57.837Z,65.15
2022-11-24T16:26:24.625Z,74.55
2022-11-24T16:28:51.481Z,63.33
2022-11-24T16:31:19.693Z,65.68
2022-11-24T16:33:47.071Z,58.92
2022-11-24T16:36:14.925Z,60.05
2022-11-24T16:38:41.920Z,52.28
2022-11-24T16:41:10.431Z,56.42
2022-11-24T16:43:37.989Z,53.25
2022-11-24T16:46:18.710Z,56.83
2022-11-24T16:48:51.768Z,55.80
2022-11-24T16:51:21.971Z,56.25
2022-11-24T16:53:56.343Z,50.85
2022-11-24T16:56:23.197Z,44.40
2022-11-24T16:58:49.980Z,44.50
2022-11-24T17:01:17.034Z,41.72
2022-11-24T17:03:44.166Z,44.33
2022-11-24T17:06:16.601Z,43.03
2022-11-24T17:08:45.233Z,44.00
2022-11-24T17:11:20.319Z,47.15
2022-11-24T17:13:49.239Z,47.58
2022-11-24T17:16:21.365Z,44.25
2022-11-24T17:18:48.963Z,46.72
2022-11-24T17:21:21.226Z,44.83
2022-11-24T17:23:52.474Z,48.47
2022-11-24T17:26:19.235Z,49.50
2022-11-24T17:28:46.189Z,52.80
2022-11-24T17:31:15.981Z,48.60
2022-11-24T17:33:42.825Z,48.38
2022-11-24T17:36:09.612Z,47.55
2022-11-24T17:38:36.924Z,61.78
2022-11-24T17:41:04.962Z,52.47
2022-11-24T17:46:01.873Z,46.45
2022-11-24T17:48:29.597Z,50.45
2022-11-24T17:51:16.213Z,50.55
2022-11-24T17:53:44.348Z,50.35
2022-11-24T17:58:43.936Z,48.17
2022-11-24T18:01:12.911Z,48.65
2022-11-24T18:03:40.550Z,50.58
2022-11-24T18:06:16.300Z,50.90
2022-11-24T18:08:45.218Z,50.35
2022-11-24T18:11:17.987Z,54.22
2022-11-24T18:14:01.614Z,50.47
2022-11-24T18:16:31.508Z,54.88
2022-11-24T18:19:09.799Z,57.38
2022-11-24T18:21:38.824Z,52.42
2022-11-24T18:24:06.375Z,51.40
2022-11-24T18:26:33.550Z,48.75
2022-11-24T18:29:00.342Z,52.35
2022-11-24T18:31:27.276Z,58.50
2022-11-24T18:33:54.099Z,50.88
2022-11-24T18:36:26.996Z,49.90
2022-11-24T18:39:06.855Z,49.88
2022-11-24T18:41:33.938Z,50.43
2022-11-24T18:44:07.709Z,47.60
2022-11-24T18:46:34.968Z,53.50
2022-11-24T18:49:01.755Z,46.97
2022-11-24T18:51:28.682Z,45.13
2022-11-24T18:53:57.847Z,42.10
2022-11-24T18:56:25.298Z,49.25
2022-11-24T18:58:56.116Z,84.65
2022-11-24T19:01:27.661Z,47.45
2022-11-24T19:03:57.127Z,52.08
2022-11-24T19:06:36.584Z,48.95
2022-11-24T19:09:08.948Z,65.60
2022-11-24T19:11:39.021Z,59.13
2022-11-24T19:14:07.796Z,47.67
2022-11-24T19:16:35.118Z,47.20
2022-11-24T19:19:02.897Z,60.38
2022-11-24T19:21:38.146Z,68.18
2022-11-24T19:24:07.645Z,45.28
2022-11-24T19:26:35.139Z,45.80
2022-11-24T19:29:03.048Z,41.17
2022-11-24T19:31:29.970Z,38.15
2022-11-24T19:33:58.578Z,37.47
2022-11-24T19:36:26.241Z,36.95
2022-11-24T19:38:56.013Z,38.58
2022-11-24T19:41:28.253Z,44.22
2022-11-24T19:43:55.104Z,49.75
2022-11-24T19:46:26.022Z,47.08
2022-11-24T19:48:57.261Z,80.75
2022-11-24T19:51:31.540Z,78.32
2022-11-24T19:53:59.345Z,61.92
2022-11-24T19:56:28.133Z,72.35
2022-11-24T19:58:56.107Z,116.25
2022-11-24T20:01:28.251Z,151.18
2022-11-24T20:04:11.473Z,133.80
2022-11-24T20:06:40.813Z,103.53
2022-11-24T20:09:13.456Z,126.20
2022-11-24T20:11:40.609Z,146.73
2022-11-24T20:14:09.986Z,171.87
2022-11-24T20:16:37.107Z,121.45
2022-11-24T20:19:07.181Z,116.93
2022-11-24T20:21:35.757Z,106.35
2022-11-24T20:24:07.511Z,196.20
2022-11-24T20:26:37.870Z,218.30
2022-11-24T20:29:05.843Z,126.65
2022-11-24T20:31:35.750Z,138.38
2022-11-24T20:34:04.380Z,129.10
2022-11-24T20:36:32.582Z,203.85
2022-11-24T20:39:01.346Z,147.15
2022-11-24T20:41:30.932Z,227.55
2022-11-24T20:44:00.735Z,163.32
2022-11-24T20:46:32.806Z,196.07
2022-11-24T20:49:00.118Z,170.52
2022-11-24T20:51:29.667Z,190.37
2022-11-24T20:53:59.510Z,122.07
2022-11-24T20:56:31.669Z,155.57
2022-11-24T20:59:00.102Z,145.38
2022-11-24T21:01:34.976Z,131.35
2022-11-24T21:04:03.278Z,178.27
2022-11-24T21:09:03.484Z,200.48
2022-11-24T21:11:32.292Z,169.55
2022-11-24T21:16:31.956Z,215.98
2022-11-24T21:19:03.677Z,118.03
2022-11-24T21:21:35.670Z,121.18
2022-11-24T21:24:05.232Z,223.63
2022-11-24T21:26:35.268Z,117.35
2022-11-24T21:29:02.191Z,155.15
2022-11-24T21:31:29.160Z,103.90
2022-11-24T21:33:56.250Z,112.75
2022-11-24T21:36:26.533Z,76.93
2022-11-24T21:38:58.335Z,92.80
2022-11-24T21:41:27.560Z,77.38
2022-11-24T21:43:58.202Z,88.65
2022-11-24T21:46:25.368Z,79.85
2022-11-24T21:48:52.399Z,77.10
2022-11-24T21:51:20.840Z,96.88
2022-11-24T21:53:48.168Z,90.68
2022-11-24T21:56:17.938Z,77.18
2022-11-24T21:58:53.087Z,68.13
2022-11-24T22:01:21.766Z,65.43
2022-11-24T22:03:48.814Z,70.53
2022-11-24T22:06:19.015Z,67.03
2022-11-24T22:08:46.671Z,71.88
2022-11-24T22:11:19.755Z,66.32
2022-11-24T22:13:47.040Z,78.70
2022-11-24T22:16:17.028Z,68.25
2022-11-24T22:18:45.192Z,66.00
2022-11-24T22:23:43.423Z,59.42
2022-11-24T22:26:15.740Z,63.90
2022-11-24T22:28:43.580Z,65.78
2022-11-24T22:31:13.653Z,62.92
2022-11-24T22:33:40.936Z,59.28
2022-11-24T22:36:07.998Z,58.47
2022-11-24T22:38:34.989Z,64.85
2022-11-24T22:41:03.818Z,56.85
2022-11-24T22:43:32.580Z,54.38
2022-11-24T22:46:06.652Z,51.13
2022-11-24T22:48:33.760Z,50.63
2022-11-24T22:51:05.261Z,53.38
2022-11-24T22:53:32.843Z,49.10
2022-11-24T22:56:10.557Z,48.78
2022-11-24T22:58:39.174Z,46.92
2022-11-24T23:01:07.546Z,48.13
2022-11-24T23:03:35.637Z,45.55
2022-11-24T23:08:31.901Z,47.97
2022-11-24T23:11:00.504Z,43.75
2022-11-24T23:13:27.398Z,43.95
2022-11-24T23:16:00.378Z,45.70
2022-11-24T23:18:27.434Z,47.00
2022-11-24T23:20:54.173Z,47.45
2022-11-24T23:23:21.001Z,48.53
2022-11-24T23:25:47.732Z,46.88
2022-11-24T23:28:14.506Z,45.22
2022-11-24T23:30:41.279Z,47.58
2022-11-24T23:33:08.032Z,42.53
2022-11-24T23:35:34.823Z,44.25
2022-11-24T23:38:08.765Z,46.70
2022-11-24T23:40:35.544Z,43.35
2022-11-24T23:43:02.254Z,44.70
2022-11-24T23:45:29.073Z,44.20
2022-11-24T23:47:55.939Z,43.72
2022-11-24T23:50:22.834Z,42.33
2022-11-24T23:52:49.579Z,42.72
2022-11-24T23:55:17.270Z,44.45
2022-11-24T23:57:44.102Z,42.13
